sensor_id;sensor_type;location;lat;lon;timestamp;pressure;altitude;pressure_sealevel;temperature;humidity
52032;BME280;38044;45.148;39.604;2023-06-10T00:01:39;100411.56;;;20.14;62.68
52032;BME280;38044;45.148;39.604;2023-06-10T00:04:06;100401.72;;;20.10;62.95
52032;BME280;38044;45.148;39.604;2023-06-10T00:06:32;100402.00;;;20.05;63.51
52032;BME280;38044;45.148;39.604;2023-06-10T00:09:04;100400.44;;;20.03;63.30
52032;BME280;38044;45.148;39.604;2023-06-10T00:11:33;100402.72;;;20.01;63.25
52032;BME280;38044;45.148;39.604;2023-06-10T00:14:00;100409.03;;;20.06;62.94
52032;BME280;38044;45.148;39.604;2023-06-10T00:16:26;100408.31;;;20.09;62.78
52032;BME280;38044;45.148;39.604;2023-06-10T00:18:52;100409.03;;;20.06;62.79
52032;BME280;38044;45.148;39.604;2023-06-10T00:21:18;100398.06;;;20.02;62.50
52032;BME280;38044;45.148;39.604;2023-06-10T00:23:44;100402.00;;;20.05;62.42
52032;BME280;38044;45.148;39.604;2023-06-10T00:26:10;100403.97;;;20.04;62.36
52032;BME280;38044;45.148;39.604;2023-06-10T00:28:36;100405.91;;;20.03;62.59
52032;BME280;38044;45.148;39.604;2023-06-10T00:31:02;100416.09;;;20.07;62.55
52032;BME280;38044;45.148;39.604;2023-06-10T00:33:29;100410.63;;;20.07;62.31
52032;BME280;38044;45.148;39.604;2023-06-10T00:35:56;100422.41;;;20.11;62.33
52032;BME280;38044;45.148;39.604;2023-06-10T00:38:22;100400.72;;;19.98;62.71
52032;BME280;38044;45.148;39.604;2023-06-10T00:40:48;100389.94;;;19.86;64.17
52032;BME280;38044;45.148;39.604;2023-06-10T00:43:13;100403.28;;;19.72;65.01
52032;BME280;38044;45.148;39.604;2023-06-10T00:45:39;100397.63;;;19.65;64.80
52032;BME280;38044;45.148;39.604;2023-06-10T00:48:06;100408.81;;;19.59;64.92
52032;BME280;38044;45.148;39.604;2023-06-10T00:50:32;100401.78;;;19.58;64.60
52032;BME280;38044;45.148;39.604;2023-06-10T00:53:00;100397.91;;;19.59;64.96
52032;BME280;38044;45.148;39.604;2023-06-10T00:55:26;100398.00;;;19.63;64.12
52032;BME280;38044;45.148;39.604;2023-06-10T00:57:53;100400.34;;;19.65;64.17
52032;BME280;38044;45.148;39.604;2023-06-10T01:00:19;100405.56;;;19.70;63.40
52032;BME280;38044;45.148;39.604;2023-06-10T01:02:44;100398.97;;;19.71;63.29
52032;BME280;38044;45.148;39.604;2023-06-10T01:05:10;100399.47;;;19.76;63.27
52032;BME280;38044;45.148;39.604;2023-06-10T01:07:46;100403.16;;;19.84;62.72
52032;BME280;38044;45.148;39.604;2023-06-10T01:11:13;100413.34;;;19.87;63.03
52032;BME280;38044;45.148;39.604;2023-06-10T01:13:30;100419.66;;;19.91;62.84
52032;BME280;38044;45.148;39.604;2023-06-10T01:15:58;100411.06;;;19.89;63.28
52032;BME280;38044;45.148;39.604;2023-06-10T01:18:30;100403.22;;;19.88;63.05
52032;BME280;38044;45.148;39.604;2023-06-10T01:20:56;100404.88;;;19.92;63.17
52032;BME280;38044;45.148;39.604;2023-06-10T01:23:23;100408.84;;;19.95;62.95
52032;BME280;38044;45.148;39.604;2023-06-10T01:26:06;100417.22;;;19.86;63.40
52032;BME280;38044;45.148;39.604;2023-06-10T01:28:45;100406.59;;;19.81;63.47
52032;BME280;38044;45.148;39.604;2023-06-10T01:34:00;100401.72;;;19.55;64.80
52032;BME280;38044;45.148;39.604;2023-06-10T01:36:28;100396.88;;;19.48;64.78
52032;BME280;38044;45.148;39.604;2023-06-10T01:38:55;100404.69;;;19.50;65.63
52032;BME280;38044;45.148;39.604;2023-06-10T01:41:22;100399.44;;;19.41;66.22
52032;BME280;38044;45.148;39.604;2023-06-10T01:43:48;100396.72;;;19.41;66.14
52032;BME280;38044;45.148;39.604;2023-06-10T01:46:15;100389.19;;;19.34;66.53
52032;BME280;38044;45.148;39.604;2023-06-10T01:48:45;100396.66;;;19.38;66.33
52032;BME280;38044;45.148;39.604;2023-06-10T01:51:10;100395.81;;;19.37;66.64
52032;BME280;38044;45.148;39.604;2023-06-10T01:53:36;100390.38;;;19.37;66.64
52032;BME280;38044;45.148;39.604;2023-06-10T01:56:02;100396.00;;;19.44;66.37
52032;BME280;38044;45.148;39.604;2023-06-10T01:58:28;100393.72;;;19.46;66.44
52032;BME280;38044;45.148;39.604;2023-06-10T02:00:54;100392.75;;;19.39;66.66
52032;BME280;38044;45.148;39.604;2023-06-10T02:03:20;100381.94;;;19.42;66.23
52032;BME280;38044;45.148;39.604;2023-06-10T02:05:46;100382.66;;;19.39;66.37
52032;BME280;38044;45.148;39.604;2023-06-10T02:08:12;100381.59;;;19.44;66.25
52032;BME280;38044;45.148;39.604;2023-06-10T02:10:37;100395.47;;;19.54;65.96
52032;BME280;38044;45.148;39.604;2023-06-10T02:13:03;100397.75;;;19.52;65.87
52032;BME280;38044;45.148;39.604;2023-06-10T02:15:29;100382.72;;;19.43;65.30
52032;BME280;38044;45.148;39.604;2023-06-10T02:17:55;100386.78;;;19.49;65.12
52032;BME280;38044;45.148;39.604;2023-06-10T02:20:21;100400.22;;;19.57;65.12
52032;BME280;38044;45.148;39.604;2023-06-10T02:22:47;100397.47;;;19.57;64.71
52032;BME280;38044;45.148;39.604;2023-06-10T02:25:13;100394.84;;;19.61;64.55
52032;BME280;38044;45.148;39.604;2023-06-10T02:27:39;100399.91;;;19.63;64.29
52032;BME280;38044;45.148;39.604;2023-06-10T02:30:05;100401.50;;;19.64;63.67
52032;BME280;38044;45.148;39.604;2023-06-10T02:32:31;100400.72;;;19.63;63.79
52032;BME280;38044;45.148;39.604;2023-06-10T02:34:57;100379.69;;;19.64;63.99
52032;BME280;38044;45.148;39.604;2023-06-10T02:37:23;100398.25;;;19.74;63.62
52032;BME280;38044;45.148;39.604;2023-06-10T02:39:49;100379.59;;;19.76;63.09
52032;BME280;38044;45.148;39.604;2023-06-10T02:42:15;100375.72;;;19.77;63.08
52032;BME280;38044;45.148;39.604;2023-06-10T02:44:40;100389.94;;;19.86;63.04
52032;BME280;38044;45.148;39.604;2023-06-10T02:47:06;100379.91;;;19.90;62.50
52032;BME280;38044;45.148;39.604;2023-06-10T02:49:32;100389.31;;;19.93;62.23
52032;BME280;38044;45.148;39.604;2023-06-10T02:51:58;100380.84;;;19.98;62.69
52032;BME280;38044;45.148;39.604;2023-06-10T02:54:24;100384.47;;;20.06;62.38
52032;BME280;38044;45.148;39.604;2023-06-10T02:56:51;100387.38;;;20.13;61.63
52032;BME280;38044;45.148;39.604;2023-06-10T02:59:17;100390.22;;;20.20;62.08
52032;BME280;38044;45.148;39.604;2023-06-10T03:01:43;100389.22;;;20.28;61.71
52032;BME280;38044;45.148;39.604;2023-06-10T03:04:09;100392.50;;;20.37;61.09
52032;BME280;38044;45.148;39.604;2023-06-10T03:06:38;100383.91;;;20.35;61.35
52032;BME280;38044;45.148;39.604;2023-06-10T03:09:06;100396.66;;;20.51;61.15
52032;BME280;38044;45.148;39.604;2023-06-10T03:11:35;100404.59;;;20.56;61.15
52032;BME280;38044;45.148;39.604;2023-06-10T03:14:01;100394.50;;;20.60;61.15
52032;BME280;38044;45.148;39.604;2023-06-10T03:16:28;100387.06;;;20.57;61.12
52032;BME280;38044;45.148;39.604;2023-06-10T03:18:55;100387.31;;;20.52;61.69
52032;BME280;38044;45.148;39.604;2023-06-10T03:21:21;100400.22;;;20.74;61.14
52032;BME280;38044;45.148;39.604;2023-06-10T03:23:47;100404.13;;;20.73;60.80
52032;BME280;38044;45.148;39.604;2023-06-10T03:26:13;100384.88;;;20.66;60.77
52032;BME280;38044;45.148;39.604;2023-06-10T03:28:40;100396.38;;;20.75;60.98
52032;BME280;38044;45.148;39.604;2023-06-10T03:31:06;100394.00;;;20.74;60.84
52032;BME280;38044;45.148;39.604;2023-06-10T03:33:32;100393.19;;;20.73;61.23
52032;BME280;38044;45.148;39.604;2023-06-10T03:35:58;100393.63;;;20.75;60.75
52032;BME280;38044;45.148;39.604;2023-06-10T03:38:24;100390.19;;;20.78;61.20
52032;BME280;38044;45.148;39.604;2023-06-10T03:40:50;100394.22;;;20.88;60.78
52032;BME280;38044;45.148;39.604;2023-06-10T03:43:16;100396.53;;;21.09;60.65
52032;BME280;38044;45.148;39.604;2023-06-10T03:45:42;100394.22;;;21.11;60.41
52032;BME280;38044;45.148;39.604;2023-06-10T03:48:08;100377.41;;;21.09;60.44
52032;BME280;38044;45.148;39.604;2023-06-10T03:50:35;100394.66;;;21.13;60.59
52032;BME280;38044;45.148;39.604;2023-06-10T03:53:01;100384.97;;;21.19;60.60
52032;BME280;38044;45.148;39.604;2023-06-10T03:55:27;100394.13;;;21.30;60.48
52032;BME280;38044;45.148;39.604;2023-06-10T03:57:53;100388.94;;;21.48;60.12
52032;BME280;38044;45.148;39.604;2023-06-10T04:00:19;100383.31;;;21.64;59.90
52032;BME280;38044;45.148;39.604;2023-06-10T04:02:47;100390.47;;;21.72;59.52
52032;BME280;38044;45.148;39.604;2023-06-10T04:05:18;100389.41;;;21.80;59.52
52032;BME280;38044;45.148;39.604;2023-06-10T04:07:47;100387.19;;;21.90;58.97
52032;BME280;38044;45.148;39.604;2023-06-10T04:10:14;100386.28;;;21.82;58.80
52032;BME280;38044;45.148;39.604;2023-06-10T04:12:41;100395.13;;;22.02;58.59
52032;BME280;38044;45.148;39.604;2023-06-10T04:15:07;100381.97;;;22.15;58.52
52032;BME280;38044;45.148;39.604;2023-06-10T04:17:33;100382.84;;;22.19;56.98
52032;BME280;38044;45.148;39.604;2023-06-10T04:20:00;100382.88;;;22.22;56.74
52032;BME280;38044;45.148;39.604;2023-06-10T04:22:26;100388.38;;;22.22;57.25
52032;BME280;38044;45.148;39.604;2023-06-10T04:24:52;100384.56;;;22.31;57.29
52032;BME280;38044;45.148;39.604;2023-06-10T04:27:18;100380.28;;;22.33;57.37
52032;BME280;38044;45.148;39.604;2023-06-10T04:29:44;100384.63;;;22.38;56.64
52032;BME280;38044;45.148;39.604;2023-06-10T04:32:10;100375.31;;;22.46;56.77
52032;BME280;38044;45.148;39.604;2023-06-10T04:34:36;100382.28;;;22.40;56.19
52032;BME280;38044;45.148;39.604;2023-06-10T04:37:05;100379.00;;;22.23;56.96
52032;BME280;38044;45.148;39.604;2023-06-10T04:39:32;100376.59;;;22.18;57.36
52032;BME280;38044;45.148;39.604;2023-06-10T04:41:59;100366.03;;;22.20;56.62
52032;BME280;38044;45.148;39.604;2023-06-10T04:44:26;100368.84;;;22.24;56.86
52032;BME280;38044;45.148;39.604;2023-06-10T04:46:51;100364.88;;;22.18;56.87
52032;BME280;38044;45.148;39.604;2023-06-10T04:49:17;100370.06;;;22.30;57.00
52032;BME280;38044;45.148;39.604;2023-06-10T04:51:43;100377.84;;;22.24;57.21
52032;BME280;38044;45.148;39.604;2023-06-10T04:54:09;100355.44;;;22.15;57.81
52032;BME280;38044;45.148;39.604;2023-06-10T04:56:35;100367.31;;;22.26;56.72
52032;BME280;38044;45.148;39.604;2023-06-10T04:59:01;100364.38;;;22.12;57.48
52032;BME280;38044;45.148;39.604;2023-06-10T05:01:27;100361.88;;;22.30;57.61
52032;BME280;38044;45.148;39.604;2023-06-10T05:03:53;100358.72;;;22.32;57.19
52032;BME280;38044;45.148;39.604;2023-06-10T05:06:19;100348.78;;;22.16;57.36
52032;BME280;38044;45.148;39.604;2023-06-10T05:08:45;100364.72;;;22.07;58.04
52032;BME280;38044;45.148;39.604;2023-06-10T05:11:11;100342.78;;;22.03;58.24
52032;BME280;38044;45.148;39.604;2023-06-10T05:13:36;100342.03;;;22.07;57.50
52032;BME280;38044;45.148;39.604;2023-06-10T05:16:03;100353.56;;;21.89;58.05
52032;BME280;38044;45.148;39.604;2023-06-10T05:18:29;100349.94;;;21.81;58.17
52032;BME280;38044;45.148;39.604;2023-06-10T05:20:55;100347.63;;;21.84;58.75
52032;BME280;38044;45.148;39.604;2023-06-10T05:23:21;100341.34;;;21.83;59.63
52032;BME280;38044;45.148;39.604;2023-06-10T05:25:47;100342.56;;;21.86;58.46
52032;BME280;38044;45.148;39.604;2023-06-10T05:28:13;100352.63;;;21.78;58.54
52032;BME280;38044;45.148;39.604;2023-06-10T05:30:39;100343.34;;;21.86;58.97
52032;BME280;38044;45.148;39.604;2023-06-10T05:33:05;100353.56;;;21.89;58.91
52032;BME280;38044;45.148;39.604;2023-06-10T05:35:31;100343.47;;;21.97;58.89
52032;BME280;38044;45.148;39.604;2023-06-10T05:37:57;100345.44;;;22.00;58.88
52032;BME280;38044;45.148;39.604;2023-06-10T05:40:23;100341.59;;;22.04;58.91
52032;BME280;38044;45.148;39.604;2023-06-10T05:42:49;100339.66;;;22.05;58.77
52032;BME280;38044;45.148;39.604;2023-06-10T05:45:15;100337.13;;;22.23;58.95
52032;BME280;38044;45.148;39.604;2023-06-10T05:47:41;100340.00;;;22.34;59.03
52032;BME280;38044;45.148;39.604;2023-06-10T05:50:07;100334.50;;;22.34;58.27
52032;BME280;38044;45.148;39.604;2023-06-10T05:52:35;100338.09;;;22.38;58.26
52032;BME280;38044;45.148;39.604;2023-06-10T05:55:02;100349.03;;;22.38;58.63
52032;BME280;38044;45.148;39.604;2023-06-10T05:57:28;100338.59;;;22.51;58.00
52032;BME280;38044;45.148;39.604;2023-06-10T05:59:54;100341.69;;;22.49;58.44
52032;BME280;38044;45.148;39.604;2023-06-10T06:02:19;100335.50;;;22.56;58.09
52032;BME280;38044;45.148;39.604;2023-06-10T06:04:45;100349.03;;;22.79;57.84
52032;BME280;38044;45.148;39.604;2023-06-10T06:07:11;100350.59;;;22.83;57.10
52032;BME280;38044;45.148;39.604;2023-06-10T06:09:37;100349.03;;;22.79;57.77
52032;BME280;38044;45.148;39.604;2023-06-10T06:12:03;100355.31;;;22.83;58.14
52032;BME280;38044;45.148;39.604;2023-06-10T06:14:31;100353.75;;;22.85;57.10
52032;BME280;38044;45.148;39.604;2023-06-10T06:16:57;100344.81;;;22.92;57.41
52032;BME280;38044;45.148;39.604;2023-06-10T06:19:23;100340.63;;;23.05;57.68
52032;BME280;38044;45.148;39.604;2023-06-10T06:21:49;100351.03;;;23.41;56.61
52032;BME280;38044;45.148;39.604;2023-06-10T06:24:15;100349.63;;;23.68;56.49
52032;BME280;38044;45.148;39.604;2023-06-10T06:26:41;100342.25;;;23.76;56.04
52032;BME280;38044;45.148;39.604;2023-06-10T06:29:07;100348.16;;;23.78;55.93
52032;BME280;38044;45.148;39.604;2023-06-10T06:31:33;100348.56;;;23.91;55.73
52032;BME280;38044;45.148;39.604;2023-06-10T06:33:59;100342.38;;;24.22;55.40
52032;BME280;38044;45.148;39.604;2023-06-10T06:36:26;100343.56;;;24.32;54.87
52032;BME280;38044;45.148;39.604;2023-06-10T06:38:52;100348.75;;;24.44;54.55
52032;BME280;38044;45.148;39.604;2023-06-10T06:41:18;100337.31;;;24.42;54.61
52032;BME280;38044;45.148;39.604;2023-06-10T06:43:43;100343.25;;;24.84;54.53
52032;BME280;38044;45.148;39.604;2023-06-10T06:46:09;100339.69;;;25.12;52.27
52032;BME280;38044;45.148;39.604;2023-06-10T06:48:35;100344.44;;;25.08;52.94
52032;BME280;38044;45.148;39.604;2023-06-10T06:51:01;100335.75;;;25.34;51.80
52032;BME280;38044;45.148;39.604;2023-06-10T06:53:27;100349.84;;;25.58;52.39
52032;BME280;38044;45.148;39.604;2023-06-10T06:55:52;100341.81;;;26.03;51.06
52032;BME280;38044;45.148;39.604;2023-06-10T06:58:18;100348.78;;;26.25;50.91
52032;BME280;38044;45.148;39.604;2023-06-10T07:00:44;100332.91;;;26.44;49.53
52032;BME280;38044;45.148;39.604;2023-06-10T07:03:09;100335.09;;;26.70;49.60
52032;BME280;38044;45.148;39.604;2023-06-10T07:05:35;100319.47;;;26.98;49.36
52032;BME280;38044;45.148;39.604;2023-06-10T07:08:01;100329.81;;;27.32;48.35
52032;BME280;38044;45.148;39.604;2023-06-10T07:10:28;100326.81;;;27.88;47.07
52032;BME280;38044;45.148;39.604;2023-06-10T07:12:54;100329.88;;;28.51;46.43
52032;BME280;38044;45.148;39.604;2023-06-10T07:15:20;100325.25;;;28.68;45.30
52032;BME280;38044;45.148;39.604;2023-06-10T07:17:46;100327.41;;;28.80;45.58
52032;BME280;38044;45.148;39.604;2023-06-10T07:20:12;100320.31;;;28.56;45.55
52032;BME280;38044;45.148;39.604;2023-06-10T07:22:40;100324.41;;;29.78;45.23
52032;BME280;38044;45.148;39.604;2023-06-10T07:25:07;100309.34;;;30.15;43.23
52032;BME280;38044;45.148;39.604;2023-06-10T07:27:33;100312.88;;;29.99;42.29
52032;BME280;38044;45.148;39.604;2023-06-10T07:29:59;100310.78;;;29.47;44.53
52032;BME280;38044;45.148;39.604;2023-06-10T07:32:26;100317.72;;;29.35;44.56
52032;BME280;38044;45.148;39.604;2023-06-10T07:34:52;100313.97;;;29.06;45.15
52032;BME280;38044;45.148;39.604;2023-06-10T07:37:18;100318.75;;;28.55;46.49
52032;BME280;38044;45.148;39.604;2023-06-10T07:39:45;100316.16;;;28.17;46.95
52032;BME280;38044;45.148;39.604;2023-06-10T07:42:11;100313.28;;;27.97;47.92
52032;BME280;38044;45.148;39.604;2023-06-10T07:44:37;100309.16;;;28.08;46.89
52032;BME280;38044;45.148;39.604;2023-06-10T07:47:03;100317.13;;;28.30;46.53
52032;BME280;38044;45.148;39.604;2023-06-10T07:49:29;100312.09;;;28.52;45.99
52032;BME280;38044;45.148;39.604;2023-06-10T07:51:56;100316.19;;;28.40;46.24
52032;BME280;38044;45.148;39.604;2023-06-10T07:54:21;100313.47;;;28.10;46.91
52032;BME280;38044;45.148;39.604;2023-06-10T07:56:47;100312.38;;;28.03;47.05
52032;BME280;38044;45.148;39.604;2023-06-10T07:59:14;100300.69;;;27.96;47.13
52032;BME280;38044;45.148;39.604;2023-06-10T08:01:39;100308.38;;;28.35;47.08
52032;BME280;38044;45.148;39.604;2023-06-10T08:04:06;100308.13;;;28.77;45.81
52032;BME280;38044;45.148;39.604;2023-06-10T08:06:32;100296.88;;;28.87;44.49
52032;BME280;38044;45.148;39.604;2023-06-10T08:08:58;100308.66;;;28.68;45.63
52032;BME280;38044;45.148;39.604;2023-06-10T08:11:25;100303.69;;;28.32;45.04
52032;BME280;38044;45.148;39.604;2023-06-10T08:13:54;100310.00;;;28.05;45.98
52032;BME280;38044;45.148;39.604;2023-06-10T08:16:20;100314.31;;;27.79;46.14
52032;BME280;38044;45.148;39.604;2023-06-10T08:18:45;100316.63;;;27.50;47.27
52032;BME280;38044;45.148;39.604;2023-06-10T08:21:12;100316.13;;;27.55;46.44
52032;BME280;38044;45.148;39.604;2023-06-10T08:23:37;100313.03;;;27.53;47.21
52032;BME280;38044;45.148;39.604;2023-06-10T08:26:04;100309.25;;;27.71;47.01
52032;BME280;38044;45.148;39.604;2023-06-10T08:28:30;100313.53;;;27.79;45.61
52032;BME280;38044;45.148;39.604;2023-06-10T08:30:56;100301.66;;;27.82;46.30
52032;BME280;38044;45.148;39.604;2023-06-10T08:33:22;100309.22;;;28.05;46.25
52032;BME280;38044;45.148;39.604;2023-06-10T08:35:48;100319.97;;;27.99;45.76
52032;BME280;38044;45.148;39.604;2023-06-10T08:38:14;100324.47;;;27.86;45.94
52032;BME280;38044;45.148;39.604;2023-06-10T08:40:41;100324.78;;;27.57;46.22
52032;BME280;38044;45.148;39.604;2023-06-10T08:43:10;100321.41;;;27.43;47.17
52032;BME280;38044;45.148;39.604;2023-06-10T08:45:43;100312.69;;;27.82;47.50
52032;BME280;38044;45.148;39.604;2023-06-10T08:48:14;100315.09;;;28.34;46.45
52032;BME280;38044;45.148;39.604;2023-06-10T08:50:42;100310.84;;;28.57;46.39
52032;BME280;38044;45.148;39.604;2023-06-10T08:53:08;100308.91;;;28.77;44.96
52032;BME280;38044;45.148;39.604;2023-06-10T08:55:41;100314.44;;;28.77;44.45
52032;BME280;38044;45.148;39.604;2023-06-10T08:58:07;100313.47;;;28.64;44.84
52032;BME280;38044;45.148;39.604;2023-06-10T09:00:34;100310.69;;;28.64;44.95
52032;BME280;38044;45.148;39.604;2023-06-10T09:03:01;100314.19;;;28.91;46.10
52032;BME280;38044;45.148;39.604;2023-06-10T09:05:33;100300.34;;;29.15;45.03
52032;BME280;38044;45.148;39.604;2023-06-10T09:08:00;100295.13;;;28.97;45.24
52032;BME280;38044;45.148;39.604;2023-06-10T09:10:27;100298.22;;;28.79;45.18
52032;BME280;38044;45.148;39.604;2023-06-10T09:12:53;100285.34;;;28.45;46.16
52032;BME280;38044;45.148;39.604;2023-06-10T09:15:19;100298.81;;;28.13;46.90
52032;BME280;38044;45.148;39.604;2023-06-10T09:17:45;100297.19;;;28.19;47.85
52032;BME280;38044;45.148;39.604;2023-06-10T09:20:11;100291.66;;;28.19;46.68
52032;BME280;38044;45.148;39.604;2023-06-10T09:22:37;100310.69;;;28.13;47.10
52032;BME280;38044;45.148;39.604;2023-06-10T09:25:08;100301.19;;;28.14;47.36
52032;BME280;38044;45.148;39.604;2023-06-10T09:27:55;100310.47;;;28.00;47.85
52032;BME280;38044;45.148;39.604;2023-06-10T09:30:31;100311.09;;;27.81;47.96
52032;BME280;38044;45.148;39.604;2023-06-10T09:32:59;100310.66;;;27.86;47.38
52032;BME280;38044;45.148;39.604;2023-06-10T09:35:26;100296.63;;;27.70;48.83
52032;BME280;38044;45.148;39.604;2023-06-10T09:37:54;100301.28;;;27.76;48.53
52032;BME280;38044;45.148;39.604;2023-06-10T09:40:20;100297.78;;;27.72;48.18
52032;BME280;38044;45.148;39.604;2023-06-10T09:42:46;100298.50;;;27.80;48.66
52032;BME280;38044;45.148;39.604;2023-06-10T09:45:20;100302.06;;;27.80;49.17
52032;BME280;38044;45.148;39.604;2023-06-10T09:47:55;100308.78;;;27.45;49.41
52032;BME280;38044;45.148;39.604;2023-06-10T09:50:21;100293.56;;;27.30;50.19
52032;BME280;38044;45.148;39.604;2023-06-10T09:52:47;100296.69;;;27.32;49.89
52032;BME280;38044;45.148;39.604;2023-06-10T09:55:13;100303.13;;;27.22;50.07
52032;BME280;38044;45.148;39.604;2023-06-10T09:57:40;100307.91;;;27.17;50.13
52032;BME280;38044;45.148;39.604;2023-06-10T10:00:08;100293.91;;;26.94;51.75
52032;BME280;38044;45.148;39.604;2023-06-10T10:02:49;100302.63;;;26.89;51.17
52032;BME280;38044;45.148;39.604;2023-06-10T10:05:17;100300.56;;;26.59;51.39
52032;BME280;38044;45.148;39.604;2023-06-10T10:07:44;100300.63;;;26.41;52.19
52032;BME280;38044;45.148;39.604;2023-06-10T10:10:11;100307.63;;;26.60;52.94
52032;BME280;38044;45.148;39.604;2023-06-10T10:12:39;100299.50;;;26.87;52.10
52032;BME280;38044;45.148;39.604;2023-06-10T10:15:09;100308.22;;;26.82;51.40
52032;BME280;38044;45.148;39.604;2023-06-10T10:17:41;100314.19;;;26.77;52.32
52032;BME280;38044;45.148;39.604;2023-06-10T10:20:13;100309.06;;;26.75;52.22
52032;BME280;38044;45.148;39.604;2023-06-10T10:22:41;100302.94;;;26.98;51.94
52032;BME280;38044;45.148;39.604;2023-06-10T10:25:18;100305.69;;;26.98;52.72
52032;BME280;38044;45.148;39.604;2023-06-10T10:27:51;100297.06;;;26.96;51.94
52032;BME280;38044;45.148;39.604;2023-06-10T10:30:20;100287.69;;;26.90;52.65
52032;BME280;38044;45.148;39.604;2023-06-10T10:32:58;100288.03;;;26.92;53.32
52032;BME280;38044;45.148;39.604;2023-06-10T10:35:27;100291.06;;;27.05;52.30
52032;BME280;38044;45.148;39.604;2023-06-10T10:37:54;100286.75;;;27.00;52.17
52032;BME280;38044;45.148;39.604;2023-06-10T10:40:21;100281.91;;;27.11;52.60
52032;BME280;38044;45.148;39.604;2023-06-10T10:42:51;100276.50;;;27.04;52.73
52032;BME280;38044;45.148;39.604;2023-06-10T10:45:18;100281.84;;;27.22;53.27
52032;BME280;38044;45.148;39.604;2023-06-10T10:47:46;100276.44;;;27.46;53.04
52032;BME280;38044;45.148;39.604;2023-06-10T10:50:16;100289.34;;;27.56;53.07
52032;BME280;38044;45.148;39.604;2023-06-10T10:52:54;100266.25;;;27.70;53.17
52032;BME280;38044;45.148;39.604;2023-06-10T10:55:25;100263.97;;;27.65;53.97
52032;BME280;38044;45.148;39.604;2023-06-10T10:57:59;100261.63;;;27.63;55.26
52032;BME280;38044;45.148;39.604;2023-06-10T11:00:43;100258.84;;;27.32;54.02
52032;BME280;38044;45.148;39.604;2023-06-10T11:03:15;100261.94;;;27.38;56.19
52032;BME280;38044;45.148;39.604;2023-06-10T11:05:45;100260.19;;;27.51;54.40
52032;BME280;38044;45.148;39.604;2023-06-10T11:11:00;100255.50;;;27.48;53.44
52032;BME280;38044;45.148;39.604;2023-06-10T11:13:27;100262.59;;;27.49;52.90
52032;BME280;38044;45.148;39.604;2023-06-10T11:15:57;100267.25;;;27.56;54.23
52032;BME280;38044;45.148;39.604;2023-06-10T11:18:28;100263.88;;;27.72;54.10
52032;BME280;38044;45.148;39.604;2023-06-10T11:31:27;100270.38;;;27.24;53.77
52032;BME280;38044;45.148;39.604;2023-06-10T11:33:55;100261.38;;;27.20;54.66
52032;BME280;38044;45.148;39.604;2023-06-10T11:36:22;100263.00;;;27.13;55.07
52032;BME280;38044;45.148;39.604;2023-06-10T11:38:50;100261.53;;;27.02;54.69
52032;BME280;38044;45.148;39.604;2023-06-10T11:41:18;100270.38;;;26.86;54.94
52032;BME280;38044;45.148;39.604;2023-06-10T11:43:45;100267.22;;;26.84;55.87
52032;BME280;38044;45.148;39.604;2023-06-10T11:46:14;100269.47;;;26.96;55.11
52032;BME280;38044;45.148;39.604;2023-06-10T11:48:54;100257.69;;;26.92;55.56
52032;BME280;38044;45.148;39.604;2023-06-10T11:51:20;100264.31;;;26.98;55.90
52032;BME280;38044;45.148;39.604;2023-06-10T11:53:48;100267.59;;;26.86;55.66
52032;BME280;38044;45.148;39.604;2023-06-10T11:56:26;100254.03;;;26.64;56.23
52032;BME280;38044;45.148;39.604;2023-06-10T11:59:05;100250.81;;;26.69;56.50
52032;BME280;38044;45.148;39.604;2023-06-10T12:01:43;100254.06;;;26.61;56.34
52032;BME280;38044;45.148;39.604;2023-06-10T12:04:11;100253.34;;;26.53;56.56
52032;BME280;38044;45.148;39.604;2023-06-10T12:06:49;100251.94;;;26.31;57.27
52032;BME280;38044;45.148;39.604;2023-06-10T12:09:17;100262.97;;;26.23;57.52
52032;BME280;38044;45.148;39.604;2023-06-10T12:11:44;100266.19;;;26.18;58.46
52032;BME280;38044;45.148;39.604;2023-06-10T12:14:10;100273.19;;;26.30;58.20
52032;BME280;38044;45.148;39.604;2023-06-10T12:16:36;100277.53;;;26.24;57.77
52032;BME280;38044;45.148;39.604;2023-06-10T12:19:05;100283.16;;;26.13;58.35
52032;BME280;38044;45.148;39.604;2023-06-10T12:21:33;100289.03;;;26.12;58.91
52032;BME280;38044;45.148;39.604;2023-06-10T12:24:06;100275.69;;;26.10;58.63
52032;BME280;38044;45.148;39.604;2023-06-10T12:26:43;100272.59;;;25.97;59.25
52032;BME280;38044;45.148;39.604;2023-06-10T12:29:21;100285.63;;;25.90;59.94
52032;BME280;38044;45.148;39.604;2023-06-10T12:31:56;100283.69;;;25.83;59.78
52032;BME280;38044;45.148;39.604;2023-06-10T12:34:34;100271.13;;;25.78;60.26
52032;BME280;38044;45.148;39.604;2023-06-10T12:37:02;100276.22;;;25.83;61.24
52032;BME280;38044;45.148;39.604;2023-06-10T12:39:30;100260.50;;;25.84;61.04
52032;BME280;38044;45.148;39.604;2023-06-10T12:41:57;100264.06;;;25.74;61.51
52032;BME280;38044;45.148;39.604;2023-06-10T12:44:33;100273.56;;;25.62;61.87
52032;BME280;38044;45.148;39.604;2023-06-10T12:47:01;100268.06;;;25.55;62.54
52032;BME280;38044;45.148;39.604;2023-06-10T12:49:27;100271.25;;;25.50;62.03
52032;BME280;38044;45.148;39.604;2023-06-10T12:51:53;100277.53;;;25.47;62.25
52032;BME280;38044;45.148;39.604;2023-06-10T12:54:19;100280.34;;;25.39;62.43
52032;BME280;38044;45.148;39.604;2023-06-10T12:56:45;100268.19;;;25.33;62.19
52032;BME280;38044;45.148;39.604;2023-06-10T12:59:11;100267.44;;;25.22;63.16